Time;durP1;ratioP1;P1;durP2;ratioP2;P2;SDS_P1;SDS_P2;PMS_P1;PMS_P2;Temp;Humidity;BMP_temperature;BMP_pressure;BME280_temperature;BME280_humidity;BME280_pressure;Samples;Min_cycle;Max_cycle;Signal;HPM_P1;HPM_P2
2023/02/17 00:00:56;;;;;;;1.70;0.98;;;21.00;46.70;;;;;;5080203;28;20090;-58
2023/02/17 00:03:24;;;;;;;2.25;1.58;;;21.00;46.70;;;;;;5066217;28;20060;-56
2023/02/17 00:05:53;;;;;;;2.38;1.17;;;21.00;46.70;;;;;;5066009;28;20049;-58
2023/02/17 00:08:20;;;;;;;2.20;1.40;;;21.00;46.70;;;;;;5065410;28;20068;-60
2023/02/17 00:10:58;;;;;;;6.07;3.28;;;21.00;46.70;;;;;;5064976;28;20551;-60
2023/02/17 00:13:28;;;;;;;2.67;1.33;;;21.00;46.80;;;;;;5061282;28;20086;-57
2023/02/17 00:15:55;;;;;;;2.67;1.33;;;21.00;47.00;;;;;;5064701;28;20121;-62
2023/02/17 00:18:23;;;;;;;9.43;1.70;;;21.00;47.20;;;;;;5064421;28;20419;-63
2023/02/17 00:20:50;;;;;;;7.22;1.90;;;21.00;47.40;;;;;;5067045;28;20056;-62
2023/02/17 00:23:17;;;;;;;9.43;3.10;;;21.00;47.50;;;;;;5064511;28;20064;-60
2023/02/17 00:25:45;;;;;;;9.65;2.55;;;21.00;47.60;;;;;;5064398;28;20043;-62
2023/02/17 00:28:12;;;;;;;7.30;1.30;;;21.00;47.70;;;;;;5065832;28;20120;-62
2023/02/17 00:30:40;;;;;;;14.07;1.98;;;21.00;47.80;;;;;;5064504;28;20638;-62
2023/02/17 00:33:07;;;;;;;4.50;1.25;;;21.00;47.90;;;;;;5064398;28;20405;-62
2023/02/17 00:35:40;;;;;;;13.45;0.95;;;21.00;48.00;;;;;;5064315;28;20075;-61
2023/02/17 00:38:08;;;;;;;3.97;1.88;;;21.00;48.10;;;;;;5063768;28;20045;-62
2023/02/17 00:40:35;;;;;;;5.78;1.42;;;21.00;48.10;;;;;;5065620;28;20040;-63
2023/02/17 00:43:04;;;;;;;5.97;1.10;;;21.00;48.20;;;;;;5065571;28;20045;-63
2023/02/17 00:45:32;;;;;;;2.10;0.90;;;21.00;48.20;;;;;;5065376;28;20064;-63
2023/02/17 00:48:00;;;;;;;5.28;0.85;;;21.00;48.20;;;;;;5065636;28;20060;-63
2023/02/17 00:50:28;;;;;;;5.45;0.85;;;21.00;48.20;;;;;;5065596;28;20120;-63
2023/02/17 00:52:55;;;;;;;3.92;0.93;;;21.00;48.20;;;;;;5065214;28;20053;-64
2023/02/17 00:55:22;;;;;;;0.90;0.90;;;21.00;48.30;;;;;;5065369;28;20132;-61
2023/02/17 00:57:50;;;;;;;3.00;0.70;;;21.00;48.30;;;;;;5065376;28;20471;-62
2023/02/17 01:00:18;;;;;;;1.27;0.65;;;21.00;48.50;;;;;;5065307;28;20045;-60
2023/02/17 01:02:45;;;;;;;9.18;0.90;;;21.00;48.50;;;;;;5065274;28;20078;-60
2023/02/17 01:05:14;;;;;;;4.03;0.45;;;21.00;48.60;;;;;;5063578;28;20119;-61
2023/02/17 01:07:41;;;;;;;2.90;1.33;;;21.00;48.80;;;;;;5064774;28;20075;-60
2023/02/17 01:10:11;;;;;;;2.25;0.68;;;21.00;48.90;;;;;;5063633;28;20048;-60
2023/02/17 01:12:38;;;;;;;2.83;0.70;;;21.00;49.00;;;;;;5063923;28;20040;-61
2023/02/17 01:15:07;;;;;;;3.35;1.17;;;21.00;49.00;;;;;;5063932;28;20123;-59
2023/02/17 01:17:34;;;;;;;3.10;0.63;;;21.00;49.20;;;;;;5064496;28;20044;-60
2023/02/17 01:20:01;;;;;;;1.52;0.55;;;21.00;49.30;;;;;;5065241;28;20144;-60
2023/02/17 01:22:30;;;;;;;1.48;0.90;;;21.00;49.40;;;;;;5068394;28;20053;-60
2023/02/17 01:24:57;;;;;;;3.03;1.15;;;21.00;49.50;;;;;;5067220;28;20037;-60
2023/02/17 01:27:27;;;;;;;1.65;0.80;;;21.00;49.60;;;;;;5066960;28;20504;-61
2023/02/17 01:29:55;;;;;;;0.77;0.45;;;21.00;49.70;;;;;;5068615;28;20118;-62
2023/02/17 01:32:22;;;;;;;0.30;0.20;;;21.00;49.80;;;;;;5068317;28;20049;-61
2023/02/17 01:34:49;;;;;;;2.47;0.63;;;21.00;50.10;;;;;;5066981;28;20485;-60
2023/02/17 01:37:17;;;;;;;0.80;0.40;;;21.00;50.20;;;;;;5068298;28;20056;-61
2023/02/17 01:39:45;;;;;;;2.10;0.73;;;21.00;50.20;;;;;;5066816;28;20107;-61
2023/02/17 01:42:16;;;;;;;3.35;0.40;;;21.00;50.30;;;;;;5068081;28;20471;-59
2023/02/17 01:45:16;;;;;;;0.75;0.57;;;21.00;50.30;;;;;;5083962;28;20049;-61
2023/02/17 01:47:43;;;;;;;0.45;0.20;;;21.10;50.30;;;;;;5066757;28;20119;-61
2023/02/17 01:50:14;;;;;;;2.58;0.55;;;21.00;50.40;;;;;;5066449;28;20040;-60
2023/02/17 01:52:42;;;;;;;1.40;0.30;;;21.00;50.70;;;;;;5068111;28;20040;-59
2023/02/17 01:55:14;;;;;;;2.78;0.32;;;21.00;50.80;;;;;;5088081;28;20411;-59
2023/02/17 01:57:44;;;;;;;1.60;0.40;;;21.00;50.80;;;;;;5088389;28;20040;-60
2023/02/17 02:00:14;;;;;;;0.82;0.50;;;21.00;50.90;;;;;;5087101;28;20109;-60
2023/02/17 02:02:46;;;;;;;1.10;0.40;;;21.00;50.90;;;;;;5067113;28;20048;-60
2023/02/17 02:05:15;;;;;;;1.52;0.82;;;21.00;51.00;;;;;;5066556;28;20041;-59
2023/02/17 02:07:47;;;;;;;0.40;0.32;;;21.00;51.00;;;;;;5067891;28;20347;-59
2023/02/17 02:10:19;;;;;;;3.85;0.47;;;21.00;51.10;;;;;;5066850;28;20044;-61
2023/02/17 02:12:47;;;;;;;1.85;0.85;;;21.00;51.20;;;;;;5067932;28;20562;-61
2023/02/17 02:15:16;;;;;;;2.28;0.28;;;21.00;51.20;;;;;;5068145;28;20037;-61
2023/02/17 02:17:58;;;;;;;2.75;0.30;;;21.00;51.20;;;;;;5068121;28;20143;-61
2023/02/17 02:20:59;;;;;;;1.05;0.57;;;21.00;51.20;;;;;;5067504;28;20059;-61
2023/02/17 02:23:51;;;;;;;6.82;0.40;;;21.00;51.20;;;;;;5066390;28;20419;-61
2023/02/17 02:26:49;;;;;;;0.63;0.20;;;21.00;51.30;;;;;;5067862;28;20052;-63
2023/02/17 02:29:42;;;;;;;1.55;0.50;;;21.00;51.50;;;;;;5067615;28;20033;-61
2023/02/17 02:32:47;;;;;;;1.10;0.65;;;21.00;51.50;;;;;;5067459;28;20126;-62
2023/02/17 02:35:20;;;;;;;2.28;0.45;;;21.00;51.50;;;;;;5065753;28;20051;-60
2023/02/17 02:37:51;;;;;;;0.88;0.20;;;21.00;51.70;;;;;;5067358;28;20044;-61
2023/02/17 02:40:25;;;;;;;2.42;0.40;;;21.00;51.80;;;;;;5066076;28;20136;-61
2023/02/17 02:42:53;;;;;;;0.70;0.30;;;21.00;51.80;;;;;;5067075;28;20459;-61
2023/02/17 02:45:22;;;;;;;0.50;0.20;;;21.00;51.80;;;;;;5067089;28;20098;-61
2023/02/17 02:47:51;;;;;;;2.58;0.38;;;21.00;51.80;;;;;;5067012;28;20040;-60
2023/02/17 02:50:31;;;;;;;1.90;0.50;;;21.00;51.90;;;;;;5065782;28;20508;-61
2023/02/17 02:53:12;;;;;;;1.40;0.38;;;21.00;51.80;;;;;;5065857;28;20131;-60
2023/02/17 02:55:51;;;;;;;2.00;0.40;;;21.00;51.80;;;;;;5065701;28;20075;-61
2023/02/17 02:58:22;;;;;;;0.70;0.50;;;21.00;51.80;;;;;;5065540;28;20044;-60
2023/02/17 03:00:57;;;;;;;2.08;0.30;;;21.00;51.80;;;;;;5065274;28;20045;-59
2023/02/17 03:03:30;;;;;;;0.43;0.30;;;21.00;51.80;;;;;;5066607;28;20051;-60
2023/02/17 03:06:03;;;;;;;4.38;0.60;;;21.00;51.80;;;;;;5065415;28;20100;-61
2023/02/17 03:08:35;;;;;;;0.55;0.30;;;21.00;51.90;;;;;;5066579;28;20517;-60
2023/02/17 03:11:03;;;;;;;0.28;0.20;;;21.00;51.90;;;;;;5064992;28;20056;-60
2023/02/17 03:13:38;;;;;;;1.33;0.30;;;21.00;51.90;;;;;;5065254;28;20044;-60
2023/02/17 03:16:07;;;;;;;2.45;0.50;;;21.00;52.00;;;;;;5065018;28;20063;-60
2023/02/17 03:18:36;;;;;;;0.35;0.35;;;21.00;52.00;;;;;;5065959;28;20084;-61
2023/02/17 03:21:08;;;;;;;2.80;0.50;;;21.00;52.10;;;;;;5065002;28;20051;-60
2023/02/17 03:23:37;;;;;;;0.70;0.25;;;21.00;52.10;;;;;;5066439;28;20048;-61
2023/02/17 03:26:04;;;;;;;0.73;0.70;;;21.00;52.10;;;;;;5066153;28;20044;-59
2023/02/17 03:28:31;;;;;;;12.13;0.22;;;21.00;52.10;;;;;;5066513;28;20068;-60
2023/02/17 03:30:58;;;;;;;3.40;0.20;;;21.00;52.30;;;;;;5064736;28;20040;-61
2023/02/17 03:33:25;;;;;;;2.15;0.20;;;21.00;52.30;;;;;;5066102;28;20055;-61
2023/02/17 03:35:54;;;;;;;2.15;0.22;;;21.00;52.40;;;;;;5066079;28;20081;-62
2023/02/17 03:38:21;;;;;;;1.45;0.47;;;21.00;52.60;;;;;;5067079;28;20044;-61
2023/02/17 03:40:48;;;;;;;0.30;0.30;;;21.00;52.60;;;;;;5066219;28;20040;-61
2023/02/17 03:43:16;;;;;;;0.77;0.20;;;21.00;52.60;;;;;;5066068;28;20072;-61
2023/02/17 03:45:43;;;;;;;0.28;0.28;;;21.00;52.70;;;;;;5065619;28;20051;-62
2023/02/17 03:48:11;;;;;;;0.32;0.30;;;21.00;52.60;;;;;;5077141;28;20064;-61
2023/02/17 03:50:37;;;;;;;0.40;0.40;;;21.00;52.60;;;;;;5086388;28;20038;-60
2023/02/17 03:53:06;;;;;;;2.38;0.30;;;21.00;52.60;;;;;;5086369;28;20040;-61
2023/02/17 03:55:33;;;;;;;1.75;1.10;;;21.00;52.50;;;;;;5085031;28;20032;-60
2023/02/17 03:58:00;;;;;;;1.92;0.30;;;21.00;52.50;;;;;;5068245;28;20048;-63
2023/02/17 04:00:27;;;;;;;0.63;0.20;;;21.00;52.60;;;;;;5065306;28;20033;-63
2023/02/17 04:02:55;;;;;;;0.30;0.15;;;21.00;52.70;;;;;;5065873;28;20036;-62
2023/02/17 04:05:22;;;;;;;0.38;0.38;;;21.00;52.70;;;;;;5065957;28;20041;-61
2023/02/17 04:07:50;;;;;;;0.50;0.30;;;21.00;52.80;;;;;;5065968;28;20101;-62
2023/02/17 04:10:19;;;;;;;0.30;0.30;;;21.00;52.80;;;;;;5065894;28;20039;-62
2023/02/17 04:12:46;;;;;;;0.30;0.10;;;21.00;52.90;;;;;;5065551;28;20059;-62
2023/02/17 04:15:13;;;;;;;0.38;0.20;;;21.00;52.90;;;;;;5065439;28;20043;-60
2023/02/17 04:17:41;;;;;;;1.48;0.43;;;21.00;53.00;;;;;;5065391;28;20226;-60
2023/02/17 04:20:09;;;;;;;1.00;0.43;;;21.00;53.00;;;;;;5065284;28;20650;-62
2023/02/17 04:22:36;;;;;;;0.30;0.30;;;21.00;53.10;;;;;;5063968;28;20040;-61
2023/02/17 04:25:03;;;;;;;0.73;0.60;;;21.00;53.00;;;;;;5065199;28;20041;-62
2023/02/17 04:27:32;;;;;;;0.35;0.20;;;21.00;53.00;;;;;;5065088;28;20098;-62
2023/02/17 04:29:59;;;;;;;1.10;0.32;;;21.00;53.00;;;;;;5065156;28;20064;-62
2023/02/17 04:32:26;;;;;;;0.55;0.20;;;21.00;53.00;;;;;;5064885;28;20515;-62
2023/02/17 04:34:53;;;;;;;0.45;0.20;;;21.00;52.90;;;;;;5065514;28;20051;-61
2023/02/17 04:37:20;;;;;;;2.80;0.40;;;21.00;52.90;;;;;;5065419;28;20531;-60
2023/02/17 04:39:47;;;;;;;0.30;0.20;;;21.00;52.90;;;;;;5065282;28;20044;-61
2023/02/17 04:42:15;;;;;;;0.13;0.10;;;21.00;52.90;;;;;;5065462;28;20416;-62
2023/02/17 04:44:43;;;;;;;2.58;0.20;;;21.00;53.00;;;;;;5064975;28;20174;-61
2023/02/17 04:47:10;;;;;;;0.28;0.20;;;21.00;53.10;;;;;;5065150;28;20049;-60
2023/02/17 04:49:37;;;;;;;1.10;1.10;;;21.00;53.00;;;;;;5063765;28;20051;-60
2023/02/17 04:52:05;;;;;;;0.22;0.22;;;21.00;53.00;;;;;;5065443;28;20037;-59
2023/02/17 04:54:31;;;;;;;0.20;0.20;;;21.00;53.00;;;;;;5066809;28;20048;-60
2023/02/17 04:56:59;;;;;;;2.05;0.20;;;21.00;53.00;;;;;;5069134;28;20536;-61
2023/02/17 04:59:26;;;;;;;2.67;0.35;;;21.00;52.90;;;;;;5068794;28;20068;-61
2023/02/17 05:01:54;;;;;;;0.73;0.57;;;21.00;53.50;;;;;;5068693;28;20611;-61
2023/02/17 05:04:21;;;;;;;1.35;0.10;;;21.00;53.10;;;;;;5068939;28;20107;-61
2023/02/17 05:06:48;;;;;;;0.65;0.20;;;21.00;53.00;;;;;;5068849;28;20597;-61
2023/02/17 05:09:15;;;;;;;1.85;0.17;;;21.10;52.90;;;;;;5068887;28;20070;-61
2023/02/17 05:11:42;;;;;;;0.43;0.35;;;21.00;52.80;;;;;;5068434;28;20055;-62
2023/02/17 05:14:09;;;;;;;1.33;0.13;;;21.00;52.70;;;;;;5068438;28;20123;-61
2023/02/17 05:16:37;;;;;;;1.58;0.10;;;21.00;52.70;;;;;;5068549;28;20047;-60
2023/02/17 05:19:05;;;;;;;0.88;0.20;;;21.00;52.60;;;;;;5068314;28;20103;-62
2023/02/17 05:21:32;;;;;;;0.25;0.25;;;21.00;52.60;;;;;;5068006;28;20041;-60
2023/02/17 05:24:00;;;;;;;0.20;0.20;;;21.00;52.50;;;;;;5067890;28;20052;-61
2023/02/17 05:26:27;;;;;;;0.95;0.38;;;21.00;52.70;;;;;;5067870;28;20048;-61
2023/02/17 05:28:54;;;;;;;0.20;0.10;;;21.00;52.90;;;;;;5068110;28;20052;-60
2023/02/17 05:31:21;;;;;;;3.13;0.20;;;21.00;52.90;;;;;;5067655;28;20119;-61
2023/02/17 05:33:49;;;;;;;2.17;0.20;;;21.10;53.00;;;;;;5067905;28;20374;-60
2023/02/17 05:36:17;;;;;;;0.95;0.55;;;21.10;53.00;;;;;;5068089;28;20044;-60
2023/02/17 05:38:47;;;;;;;5.38;1.55;;;21.10;53.10;;;;;;5068322;28;20041;-61
2023/02/17 05:41:15;;;;;;;1.83;0.10;;;21.00;53.00;;;;;;5068258;28;20563;-61
2023/02/17 05:43:42;;;;;;;1.20;0.20;;;21.00;53.00;;;;;;5068749;28;20057;-61
2023/02/17 05:46:09;;;;;;;2.15;0.20;;;21.00;53.00;;;;;;5067873;28;20044;-60
2023/02/17 05:48:36;;;;;;;0.10;0.10;;;21.10;53.10;;;;;;5067626;28;20043;-59
2023/02/17 05:51:04;;;;;;;0.63;0.20;;;21.10;53.00;;;;;;5067182;28;20076;-60
2023/02/17 05:53:33;;;;;;;0.20;0.20;;;21.10;53.00;;;;;;5067697;28;20131;-60
2023/02/17 05:56:00;;;;;;;1.15;0.20;;;21.10;53.00;;;;;;5067608;28;20090;-60
2023/02/17 05:58:27;;;;;;;0.10;0.10;;;21.10;52.90;;;;;;5067312;28;20527;-60
2023/02/17 06:00:54;;;;;;;0.20;0.10;;;21.00;52.80;;;;;;5067409;28;20040;-60
2023/02/17 06:03:21;;;;;;;3.00;0.20;;;21.10;52.90;;;;;;5067505;28;20143;-61
2023/02/17 06:05:49;;;;;;;0.10;0.10;;;21.10;52.90;;;;;;5069216;28;20041;-61
2023/02/17 06:08:16;;;;;;;0.75;0.10;;;21.10;52.80;;;;;;5066284;28;20070;-60
2023/02/17 06:10:44;;;;;;;0.20;0.10;;;21.10;52.70;;;;;;5067095;28;20530;-59
2023/02/17 06:13:11;;;;;;;0.20;0.20;;;21.10;52.70;;;;;;5067774;28;20044;-61
2023/02/17 06:15:39;;;;;;;0.10;0.10;;;21.10;52.80;;;;;;5067388;28;20052;-60
2023/02/17 06:18:06;;;;;;;0.30;0.10;;;21.10;52.80;;;;;;5066799;28;20063;-60
2023/02/17 06:20:33;;;;;;;0.10;0.10;;;21.00;52.80;;;;;;5067121;28;20056;-61
2023/02/17 06:23:00;;;;;;;0.75;0.10;;;21.10;52.90;;;;;;5067160;28;20551;-61
2023/02/17 06:25:27;;;;;;;0.32;0.10;;;21.10;52.90;;;;;;5066805;28;20041;-61
2023/02/17 06:27:56;;;;;;;0.65;0.10;;;21.10;52.90;;;;;;5067061;28;20051;-61
2023/02/17 06:30:23;;;;;;;2.92;0.15;;;21.10;52.90;;;;;;5066950;28;20093;-60
2023/02/17 06:32:50;;;;;;;2.60;1.15;;;21.10;53.10;;;;;;5065327;28;20055;-61
2023/02/17 06:35:17;;;;;;;0.70;0.10;;;21.10;53.10;;;;;;5066979;28;20036;-62
2023/02/17 06:37:44;;;;;;;2.03;0.20;;;21.10;53.20;;;;;;5066788;28;20161;-62
2023/02/17 06:40:13;;;;;;;1.90;0.20;;;21.10;53.10;;;;;;5066532;28;20044;-61
2023/02/17 06:42:40;;;;;;;0.20;0.10;;;21.10;53.30;;;;;;5066952;28;20063;-62
2023/02/17 06:45:09;;;;;;;10.85;1.10;;;21.10;53.20;;;;;;5067405;28;20044;-61
2023/02/17 06:47:37;;;;;;;1.48;0.15;;;21.10;53.10;;;;;;5067250;28;20139;-62
2023/02/17 06:50:05;;;;;;;0.30;0.20;;;21.00;53.00;;;;;;5066661;28;20532;-61
2023/02/17 06:52:32;;;;;;;0.47;0.40;;;21.00;53.10;;;;;;5066993;28;20053;-61
2023/02/17 06:54:59;;;;;;;0.50;0.05;;;21.10;53.30;;;;;;5066319;28;20416;-61
2023/02/17 06:57:26;;;;;;;1.55;0.10;;;21.10;53.50;;;;;;5066983;28;20049;-60
2023/02/17 06:59:53;;;;;;;0.43;0.20;;;21.00;53.50;;;;;;5066834;28;20508;-60
2023/02/17 07:02:21;;;;;;;0.17;0.10;;;21.00;53.60;;;;;;5066580;28;20049;-61
2023/02/17 07:04:48;;;;;;;0.20;0.10;;;21.00;53.70;;;;;;5066817;28;20712;-61
2023/02/17 07:07:17;;;;;;;0.20;0.20;;;21.10;53.90;;;;;;5066965;28;20072;-61
2023/02/17 07:09:45;;;;;;;1.65;0.20;;;21.00;53.80;;;;;;5066346;28;20578;-62
2023/02/17 07:12:12;;;;;;;0.20;0.20;;;21.10;53.80;;;;;;5066932;28;20132;-62
2023/02/17 07:14:39;;;;;;;1.65;0.10;;;21.10;53.80;;;;;;5067299;28;20798;-61
2023/02/17 07:17:06;;;;;;;1.25;0.30;;;21.10;53.90;;;;;;5066322;28;20367;-62
2023/02/17 07:19:34;;;;;;;0.10;0.10;;;21.10;53.80;;;;;;5067367;28;20501;-61
2023/02/17 07:22:02;;;;;;;0.10;0.10;;;21.10;53.80;;;;;;5067354;28;20052;-62
2023/02/17 07:24:29;;;;;;;0.95;0.30;;;21.10;53.80;;;;;;5066871;28;20531;-62
2023/02/17 07:26:56;;;;;;;0.45;0.10;;;21.10;53.80;;;;;;5054448;28;20501;-61
2023/02/17 07:29:23;;;;;;;0.93;0.30;;;21.10;53.70;;;;;;5046527;28;20041;-62
2023/02/17 07:31:50;;;;;;;0.63;0.10;;;21.10;53.70;;;;;;5060344;28;20032;-62
2023/02/17 07:34:17;;;;;;;0.10;0.10;;;21.10;53.80;;;;;;5066412;28;20521;-61
2023/02/17 07:36:46;;;;;;;0.30;0.20;;;21.10;53.90;;;;;;5066188;28;20036;-63
2023/02/17 07:39:13;;;;;;;1.15;0.10;;;21.10;54.00;;;;;;5066081;28;20044;-62
2023/02/17 07:41:40;;;;;;;2.20;0.10;;;21.10;54.00;;;;;;5066113;28;20029;-63
2023/02/17 07:44:10;;;;;;;0.65;0.10;;;21.10;54.20;;;;;;5066050;28;20047;-62
2023/02/17 07:46:38;;;;;;;3.20;0.10;;;21.10;54.10;;;;;;5083941;28;20040;-59
2023/02/17 07:49:05;;;;;;;2.40;0.75;;;21.10;54.00;;;;;;5069036;28;20054;-62
2023/02/17 07:51:32;;;;;;;0.10;0.10;;;21.10;54.20;;;;;;5065432;28;20106;-61
2023/02/17 07:54:01;;;;;;;3.20;0.20;;;21.10;54.20;;;;;;5065721;28;20040;-61
2023/02/17 07:56:29;;;;;;;8.18;0.65;;;21.20;54.30;;;;;;5065868;28;20646;-64
2023/02/17 07:58:56;;;;;;;10.30;1.38;;;21.20;54.40;;;;;;5064372;28;20048;-70
2023/02/17 08:01:25;;;;;;;1.73;0.15;;;21.20;54.30;;;;;;5065594;28;20112;-71
2023/02/17 08:03:52;;;;;;;2.63;0.10;;;21.20;54.90;;;;;;5066868;28;20040;-73
2023/02/17 08:06:21;;;;;;;4.80;0.25;;;21.30;54.40;;;;;;5067797;28;20052;-75
2023/02/17 08:14:22;;;;;;;1.77;0.22;;;21.40;54.20;;;;;;5066036;28;20044;-75
2023/02/17 08:16:49;;;;;;;0.75;0.10;;;21.50;54.20;;;;;;5066221;28;20047;-74
2023/02/17 08:19:16;;;;;;;1.88;0.17;;;21.50;54.10;;;;;;5065756;28;20051;-74
2023/02/17 08:21:43;;;;;;;1.45;0.20;;;21.60;53.90;;;;;;5065615;28;20058;-75
2023/02/17 08:24:11;;;;;;;1.25;0.40;;;21.70;53.90;;;;;;5066091;28;20050;-65
2023/02/17 08:26:39;;;;;;;0.70;0.30;;;21.70;53.70;;;;;;5065618;28;20044;-68
2023/02/17 08:29:06;;;;;;;4.68;0.10;;;21.80;53.70;;;;;;5068471;28;20063;-67
2023/02/17 08:31:35;;;;;;;2.70;0.13;;;21.80;53.60;;;;;;5069508;28;20170;-65
2023/02/17 08:34:05;;;;;;;0.85;0.10;;;22.00;53.50;;;;;;5069550;28;20489;-65
2023/02/17 08:36:32;;;;;;;0.68;0.10;;;22.00;53.40;;;;;;5069308;28;20044;-65
2023/02/17 08:39:00;;;;;;;2.92;0.98;;;22.10;53.40;;;;;;5068923;28;20045;-65
2023/02/17 08:41:29;;;;;;;3.88;0.17;;;22.10;53.20;;;;;;5069552;28;20040;-65
2023/02/17 08:43:59;;;;;;;0.20;0.10;;;22.20;53.10;;;;;;5068213;28;20139;-65
2023/02/17 08:46:27;;;;;;;1.02;0.17;;;22.30;53.10;;;;;;5069459;28;20402;-64
2023/02/17 08:48:55;;;;;;;2.28;0.10;;;22.30;53.00;;;;;;5069630;28;20051;-64
2023/02/17 08:51:25;;;;;;;0.10;0.10;;;22.30;52.90;;;;;;5069043;28;20415;-64
2023/02/17 08:53:54;;;;;;;1.38;0.10;;;22.40;53.00;;;;;;5069167;28;20067;-65
2023/02/17 08:56:21;;;;;;;3.08;0.20;;;22.40;52.60;;;;;;5069224;28;20105;-63
2023/02/17 08:58:48;;;;;;;3.22;0.10;;;22.50;52.60;;;;;;5069340;28;20088;-64
2023/02/17 09:01:18;;;;;;;2.08;0.25;;;22.50;52.50;;;;;;5069141;28;20041;-62
2023/02/17 09:03:45;;;;;;;0.47;0.10;;;22.60;52.30;;;;;;5069484;28;20053;-66
2023/02/17 09:06:14;;;;;;;1.65;0.10;;;22.60;52.30;;;;;;5067345;28;20052;-69
2023/02/17 09:08:41;;;;;;;3.40;0.55;;;22.60;52.20;;;;;;5069271;28;20049;-70
2023/02/17 09:11:09;;;;;;;0.35;0.35;;;22.70;52.20;;;;;;5068889;28;20056;-65
2023/02/17 09:13:36;;;;;;;0.40;0.10;;;22.70;52.10;;;;;;5079556;28;20140;-67
2023/02/17 09:16:04;;;;;;;2.22;0.20;;;22.70;52.10;;;;;;5089302;28;20051;-64
2023/02/17 09:18:32;;;;;;;1.45;0.10;;;22.80;52.10;;;;;;5088996;28;20055;-65
2023/02/17 09:21:00;;;;;;;0.17;0.10;;;22.80;52.10;;;;;;5070848;28;20689;-64
2023/02/17 09:23:27;;;;;;;1.55;0.10;;;22.80;52.00;;;;;;5068722;28;20040;-65
2023/02/17 09:26:03;;;;;;;1.38;0.10;;;22.80;51.90;;;;;;5068600;28;20036;-65
2023/02/17 09:28:30;;;;;;;0.77;0.30;;;22.90;51.80;;;;;;5068908;28;20824;-65
2023/02/17 09:30:57;;;;;;;0.45;0.30;;;22.90;51.80;;;;;;5068655;28;20045;-63
2023/02/17 09:33:25;;;;;;;0.05;0.00;;;22.90;51.70;;;;;;5038203;28;20625;-72
2023/02/17 09:35:53;;;;;;;2.22;0.10;;;23.00;51.60;;;;;;5058134;28;20053;-74
2023/02/17 09:38:20;;;;;;;0.17;0.10;;;23.00;51.40;;;;;;5066074;28;20460;-69
2023/02/17 09:40:49;;;;;;;0.20;0.10;;;23.00;51.40;;;;;;5065414;28;20127;-71
2023/02/17 09:43:18;;;;;;;0.10;0.05;;;23.10;51.30;;;;;;5065652;28;20044;-72
2023/02/17 09:45:50;;;;;;;0.30;0.10;;;23.10;51.10;;;;;;5067659;28;20130;-70
2023/02/17 09:48:20;;;;;;;0.55;0.10;;;23.20;51.10;;;;;;5065089;28;20059;-69
2023/02/17 09:50:58;;;;;;;0.60;0.10;;;23.20;50.90;;;;;;5066280;28;20131;-75
2023/02/17 09:53:31;;;;;;;0.10;0.05;;;23.30;50.70;;;;;;5065610;28;20068;-72
2023/02/17 09:56:01;;;;;;;0.63;0.00;;;23.30;50.80;;;;;;5065730;28;20044;-70
2023/02/17 09:58:34;;;;;;;0.10;0.00;;;23.30;50.70;;;;;;5065679;28;20151;-68
2023/02/17 10:01:04;;;;;;;0.17;0.10;;;23.30;50.50;;;;;;5066072;28;20846;-71
2023/02/17 10:03:36;;;;;;;1.55;0.10;;;23.40;50.50;;;;;;5067383;28;20040;-72
2023/02/17 10:06:13;;;;;;;1.35;0.10;;;23.40;50.20;;;;;;5065324;28;20094;-70
2023/02/17 10:08:47;;;;;;;0.30;0.10;;;23.40;50.80;;;;;;5065598;28;20131;-66
2023/02/17 10:11:21;;;;;;;2.22;0.10;;;23.50;50.20;;;;;;5065361;28;20132;-67
2023/02/17 10:13:48;;;;;;;0.10;0.10;;;23.50;50.10;;;;;;5065109;28;20210;-67
2023/02/17 10:16:21;;;;;;;0.10;0.10;;;23.50;50.00;;;;;;5065127;28;20055;-63
2023/02/17 10:18:54;;;;;;;0.17;0.10;;;23.60;50.00;;;;;;5063746;28;20422;-62
2023/02/17 10:21:28;;;;;;;0.10;0.10;;;23.60;49.80;;;;;;5045495;28;20073;-62
2023/02/17 10:23:55;;;;;;;0.70;0.10;;;23.60;49.60;;;;;;5044822;28;20487;-61
2023/02/17 10:26:33;;;;;;;0.95;0.10;;;23.60;49.50;;;;;;5060038;28;20041;-62
2023/02/17 10:29:05;;;;;;;1.13;0.57;;;23.60;49.40;;;;;;5065242;28;20503;-66
2023/02/17 10:31:43;;;;;;;1.40;0.10;;;23.60;49.40;;;;;;5064574;28;20058;-64
2023/02/17 10:34:16;;;;;;;0.10;0.10;;;23.60;49.40;;;;;;5064874;28;20036;-65
2023/02/17 10:36:53;;;;;;;0.40;0.22;;;23.60;49.40;;;;;;5064740;28;20128;-67
2023/02/17 10:39:41;;;;;;;1.65;0.10;;;23.60;49.30;;;;;;5065089;28;20056;-67
2023/02/17 10:42:14;;;;;;;2.20;0.05;;;23.70;49.30;;;;;;5065037;28;20098;-65
2023/02/17 10:44:41;;;;;;;0.45;0.00;;;23.70;49.30;;;;;;5064638;28;20744;-67
2023/02/17 10:47:09;;;;;;;1.10;0.00;;;23.70;49.30;;;;;;5064396;28;20505;-65
2023/02/17 10:49:41;;;;;;;0.30;0.15;;;23.70;49.20;;;;;;5064590;28;20047;-65
2023/02/17 10:52:15;;;;;;;1.35;0.10;;;23.70;49.10;;;;;;5063678;28;20040;-65
2023/02/17 10:54:48;;;;;;;0.13;0.00;;;23.70;49.10;;;;;;5064141;28;20056;-65
2023/02/17 10:57:17;;;;;;;0.38;0.10;;;23.80;49.10;;;;;;5064241;28;20047;-66
2023/02/17 10:59:46;;;;;;;0.10;0.10;;;23.80;49.10;;;;;;5064654;28;20075;-66
2023/02/17 11:02:18;;;;;;;0.10;0.10;;;23.80;49.00;;;;;;5063864;28;20053;-68
2023/02/17 11:04:47;;;;;;;2.70;0.10;;;23.80;48.90;;;;;;5064067;28;20086;-64
2023/02/17 11:07:17;;;;;;;1.27;0.85;;;23.90;49.00;;;;;;5064405;28;20040;-65
2023/02/17 11:09:50;;;;;;;0.00;0.00;;;23.90;48.90;;;;;;5064498;28;20044;-68
2023/02/17 11:12:22;;;;;;;0.10;0.10;;;23.90;48.90;;;;;;5064034;28;20532;-65
2023/02/17 11:14:53;;;;;;;0.82;0.00;;;24.00;48.90;;;;;;5063823;28;20040;-67
2023/02/17 11:17:27;;;;;;;2.88;0.00;;;24.00;48.80;;;;;;5063988;28;20068;-66
2023/02/17 11:19:56;;;;;;;0.38;0.17;;;24.00;48.80;;;;;;5064228;28;20078;-66
2023/02/17 11:22:34;;;;;;;0.10;0.10;;;24.00;48.60;;;;;;5064404;28;20810;-65
2023/02/17 11:25:03;;;;;;;2.08;0.10;;;24.00;48.50;;;;;;5063351;28;20044;-64
2023/02/17 11:27:30;;;;;;;0.05;0.00;;;24.00;48.40;;;;;;5063801;28;20071;-64
2023/02/17 11:30:07;;;;;;;0.00;0.00;;;24.00;48.40;;;;;;5063702;28;20049;-64
2023/02/17 11:32:35;;;;;;;0.00;0.00;;;24.10;48.40;;;;;;5063723;28;20060;-63
2023/02/17 11:35:05;;;;;;;0.30;0.10;;;24.10;48.40;;;;;;5063295;28;20914;-63
2023/02/17 11:37:42;;;;;;;0.10;0.10;;;24.10;48.40;;;;;;5063756;28;20048;-65
2023/02/17 11:40:24;;;;;;;3.40;0.05;;;24.10;48.40;;;;;;5063881;28;20401;-65
2023/02/17 11:42:56;;;;;;;0.13;0.00;;;24.10;48.20;;;;;;5063490;28;20045;-63
2023/02/17 11:45:24;;;;;;;0.10;0.10;;;24.10;48.20;;;;;;5069451;28;20040;-66
2023/02/17 11:48:04;;;;;;;1.02;0.10;;;24.10;48.10;;;;;;5083727;28;20040;-65
2023/02/17 11:50:35;;;;;;;0.10;0.10;;;24.10;48.20;;;;;;5080316;28;20048;-64
2023/02/17 11:53:19;;;;;;;0.40;0.10;;;24.10;48.20;;;;;;5063384;28;20877;-65
2023/02/17 11:55:54;;;;;;;0.25;0.10;;;24.20;48.10;;;;;;5063349;28;20140;-64
2023/02/17 11:58:32;;;;;;;1.20;0.10;;;24.20;48.10;;;;;;5063428;28;20199;-65
2023/02/17 12:01:08;;;;;;;0.20;0.20;;;24.20;48.20;;;;;;5065472;28;20576;-65
2023/02/17 12:04:13;;;;;;;0.25;0.10;;;24.20;48.20;;;;;;5062679;28;20041;-67
2023/02/17 12:06:52;;;;;;;0.28;0.28;;;24.20;47.90;;;;;;5063287;28;20033;-70
2023/02/17 12:09:26;;;;;;;0.10;0.10;;;24.20;47.80;;;;;;5063133;28;20761;-60
2023/02/17 12:12:02;;;;;;;2.40;0.10;;;24.20;47.60;;;;;;5062873;28;20366;-62
2023/02/17 12:14:53;;;;;;;2.47;0.10;;;24.20;47.50;;;;;;5062995;28;20239;-59
2023/02/17 12:17:30;;;;;;;0.10;0.10;;;24.20;47.40;;;;;;5063609;28;20068;-60
2023/02/17 12:20:07;;;;;;;0.70;0.40;;;24.10;47.40;;;;;;5061729;28;20135;-60
2023/02/17 12:22:55;;;;;;;5.13;0.10;;;24.10;47.50;;;;;;5063726;28;20036;-60
2023/02/17 12:25:27;;;;;;;1.27;0.30;;;24.10;47.50;;;;;;5067102;28;20048;-60
2023/02/17 12:28:09;;;;;;;2.53;0.10;;;24.10;47.60;;;;;;5057666;28;20090;-60
2023/02/17 12:30:49;;;;;;;0.65;0.10;;;24.00;47.50;;;;;;5057528;28;20424;-61
2023/02/17 12:33:36;;;;;;;0.73;0.10;;;24.00;47.50;;;;;;5058690;28;20037;-60
2023/02/17 12:36:07;;;;;;;1.17;0.03;;;24.00;47.60;;;;;;5062160;28;20052;-60
2023/02/17 12:38:39;;;;;;;0.50;0.32;;;24.00;47.60;;;;;;5059068;28;20725;-60
2023/02/17 12:41:13;;;;;;;1.45;0.10;;;24.00;47.50;;;;;;5061418;28;20052;-60
2023/02/17 12:43:44;;;;;;;0.10;0.10;;;24.00;47.50;;;;;;5060748;28;20045;-61
2023/02/17 12:46:14;;;;;;;0.10;0.10;;;24.00;47.60;;;;;;5059972;28;20625;-60
2023/02/17 12:48:45;;;;;;;7.78;0.47;;;24.00;47.50;;;;;;5061199;28;20040;-60
2023/02/17 12:51:19;;;;;;;2.53;0.20;;;24.00;47.50;;;;;;5063513;28;20059;-59
2023/02/17 12:53:51;;;;;;;5.15;0.10;;;24.00;47.50;;;;;;5060536;28;20051;-62
2023/02/17 12:56:49;;;;;;;6.28;0.10;;;24.00;47.40;;;;;;5061284;28;20041;-62
2023/02/17 12:59:19;;;;;;;1.17;0.10;;;24.00;47.40;;;;;;5060852;28;20064;-62
2023/02/17 13:01:57;;;;;;;5.47;0.10;;;23.90;47.90;;;;;;5062845;28;20119;-62
2023/02/17 13:04:25;;;;;;;7.80;0.10;;;24.00;47.20;;;;;;5061449;28;20061;-62
2023/02/17 13:07:04;;;;;;;0.60;0.10;;;23.90;47.20;;;;;;5062784;28;20037;-62